createdAt,value
2022-10-18T00:04:56.959Z,13.22
2022-10-18T00:10:17.536Z,13.19
2022-10-18T00:15:38.431Z,13.20
2022-10-18T00:21:02.921Z,13.19
2022-10-18T00:26:26.319Z,13.18
2022-10-18T00:31:46.518Z,13.18
2022-10-18T00:37:07.159Z,13.17
2022-10-18T00:42:31.990Z,13.18
2022-10-18T00:47:59.954Z,13.19
2022-10-18T00:53:22.915Z,13.18
2022-10-18T00:58:44.606Z,13.18
2022-10-18T01:04:05.041Z,13.19
2022-10-18T01:09:37.580Z,13.16
2022-10-18T01:15:13.416Z,13.15
2022-10-18T01:21:15.673Z,13.18
2022-10-18T01:27:00.374Z,13.17
2022-10-18T01:32:28.844Z,13.16
2022-10-18T01:37:56.095Z,13.19
2022-10-18T01:43:21.528Z,13.17
2022-10-18T01:48:42.341Z,13.17
2022-10-18T01:54:03.296Z,13.15
2022-10-18T01:59:45.590Z,13.10
2022-10-18T02:05:20.651Z,13.08
2022-10-18T02:10:48.672Z,13.07
2022-10-18T02:16:35.664Z,13.04
2022-10-18T02:21:58.560Z,13.05
2022-10-18T02:27:19.285Z,13.06
2022-10-18T02:32:53.801Z,13.07
2022-10-18T02:38:20.435Z,13.04
2022-10-18T02:43:40.829Z,13.00
2022-10-18T02:49:01.461Z,12.97
2022-10-18T02:54:22.494Z,12.93
2022-10-18T02:59:43.010Z,12.92
2022-10-18T03:05:03.649Z,12.92
2022-10-18T03:10:24.177Z,12.93
2022-10-18T03:15:44.632Z,13.01
2022-10-18T03:21:06.799Z,13.04
2022-10-18T03:26:27.254Z,13.10
2022-10-18T03:31:48.281Z,13.15
2022-10-18T03:37:09.741Z,13.13
2022-10-18T03:42:30.707Z,13.09
2022-10-18T03:47:51.727Z,13.14
2022-10-18T03:53:12.547Z,13.20
2022-10-18T04:03:54.191Z,13.16
2022-10-18T04:09:14.784Z,13.14
2022-10-18T04:14:34.954Z,13.14
2022-10-18T04:19:55.581Z,13.17
2022-10-18T04:25:16.839Z,13.17
2022-10-18T04:30:37.366Z,13.15
2022-10-18T04:35:58.087Z,13.17
2022-10-18T04:41:18.594Z,13.18
2022-10-18T04:46:39.022Z,13.16
2022-10-18T04:51:59.438Z,13.13
2022-10-18T04:57:20.218Z,13.13
2022-10-18T05:02:41.015Z,13.13
2022-10-18T05:08:01.587Z,13.12
2022-10-18T05:13:21.863Z,13.09
2022-10-18T05:18:43.247Z,13.09
2022-10-18T05:24:04.107Z,13.09
2022-10-18T05:29:24.836Z,13.07
2022-10-18T05:34:45.835Z,13.06
2022-10-18T05:40:07.170Z,13.06
2022-10-18T05:45:27.705Z,13.05
2022-10-18T05:50:48.107Z,13.00
2022-10-18T05:56:08.564Z,13.01
2022-10-18T06:01:29.275Z,13.02
2022-10-18T06:06:49.843Z,13.02
2022-10-18T06:12:10.449Z,13.00
2022-10-18T06:17:32.617Z,12.98
2022-10-18T06:22:53.622Z,12.98
2022-10-18T06:28:14.298Z,12.99
2022-10-18T06:33:36.045Z,13.01
2022-10-18T06:38:56.782Z,13.05
2022-10-18T06:44:17.873Z,13.11
2022-10-18T06:49:38.213Z,13.18
2022-10-18T06:54:58.725Z,13.15
2022-10-18T07:00:19.380Z,13.18
2022-10-18T07:05:39.835Z,13.25
2022-10-18T07:11:00.266Z,13.33
2022-10-18T07:16:20.834Z,13.52
2022-10-18T07:21:41.122Z,13.56
2022-10-18T07:27:01.501Z,13.56
2022-10-18T07:32:22.351Z,13.63
2022-10-18T07:37:42.952Z,13.60
2022-10-18T07:43:04.695Z,13.58
2022-10-18T07:48:25.965Z,13.68
2022-10-18T07:53:46.855Z,13.77
2022-10-18T07:59:09.218Z,13.66
2022-10-18T08:04:29.805Z,13.65
2022-10-18T08:09:50.527Z,13.71
2022-10-18T08:15:11.798Z,13.77
2022-10-18T08:20:33.330Z,13.85
2022-10-18T08:25:53.868Z,14.28
2022-10-18T08:31:17.809Z,14.54
2022-10-18T08:36:38.521Z,14.45
2022-10-18T08:42:39.684Z,14.13
2022-10-18T08:48:00.305Z,14.24
2022-10-18T08:53:33.103Z,14.69
2022-10-18T08:58:54.546Z,14.84
2022-10-18T09:04:40.607Z,14.79
2022-10-18T09:10:16.725Z,15.33
2022-10-18T09:15:55.333Z,15.31
2022-10-18T09:21:22.737Z,14.94
2022-10-18T09:26:49.729Z,14.77
2022-10-18T09:32:41.460Z,15.06
2022-10-18T09:38:11.171Z,15.07
2022-10-18T09:43:46.402Z,15.03
2022-10-18T09:49:32.720Z,15.16
2022-10-18T09:54:58.075Z,15.14
2022-10-18T10:00:24.777Z,14.83
2022-10-18T10:05:45.302Z,15.46
2022-10-18T10:11:26.782Z,16.14
2022-10-18T10:16:51.228Z,15.76
2022-10-18T10:22:14.276Z,15.84
2022-10-18T10:27:44.162Z,15.99
2022-10-18T10:33:05.877Z,15.34
2022-10-18T10:38:28.975Z,15.36
2022-10-18T10:43:50.933Z,15.21
2022-10-18T10:49:40.607Z,15.09
2022-10-18T10:55:30.433Z,14.87
2022-10-18T11:00:45.027Z,14.63
2022-10-18T11:06:05.837Z,14.64
2022-10-18T11:11:32.879Z,14.54
2022-10-18T11:17:08.180Z,14.51
2022-10-18T11:22:35.207Z,14.75
2022-10-18T11:28:16.114Z,15.02
2022-10-18T11:34:14.968Z,15.25
2022-10-18T11:39:53.747Z,18.47
2022-10-18T11:45:26.782Z,19.13
2022-10-18T11:50:56.460Z,18.05
2022-10-18T11:56:39.096Z,16.41
2022-10-18T12:02:35.604Z,16.01
2022-10-18T12:08:07.659Z,16.21
2022-10-18T12:13:36.595Z,15.08
2022-10-18T12:18:59.807Z,14.42
2022-10-18T12:24:24.934Z,14.28
2022-10-18T12:29:47.978Z,14.92
2022-10-18T12:35:15.612Z,16.05
2022-10-18T12:40:41.162Z,19.65
2022-10-18T12:46:03.620Z,16.91
2022-10-18T12:51:23.965Z,15.62
2022-10-18T12:56:46.693Z,15.06
2022-10-18T13:02:07.594Z,14.56
2022-10-18T13:07:31.172Z,14.52
2022-10-18T13:13:38.607Z,15.02
2022-10-18T13:19:19.939Z,15.01
2022-10-18T13:24:47.002Z,14.87
2022-10-18T13:30:42.336Z,14.96
2022-10-18T13:36:25.109Z,14.91
2022-10-18T13:41:45.619Z,15.15
2022-10-18T13:47:13.658Z,15.32
2022-10-18T13:53:18.070Z,15.38
2022-10-18T13:59:15.985Z,15.80
2022-10-18T14:04:46.538Z,15.86
2022-10-18T14:10:18.897Z,15.26
2022-10-18T14:15:43.287Z,15.05
2022-10-18T14:21:16.830Z,14.78
2022-10-18T14:32:09.606Z,14.25
2022-10-18T14:37:36.734Z,13.99
2022-10-18T14:43:05.261Z,14.01
2022-10-18T14:48:25.693Z,13.84
2022-10-18T14:53:47.218Z,13.74
2022-10-18T14:59:27.056Z,13.51
2022-10-18T15:04:58.906Z,13.31
2022-10-18T15:10:25.384Z,13.14
2022-10-18T15:15:46.620Z,13.08
2022-10-18T15:21:22.121Z,12.89
2022-10-18T15:26:45.003Z,12.87
2022-10-18T15:32:30.377Z,12.84
2022-10-18T15:37:51.527Z,12.70
2022-10-18T15:43:24.093Z,12.63
2022-10-18T15:48:45.258Z,12.56
2022-10-18T15:54:05.887Z,12.47
2022-10-18T15:59:30.715Z,12.38
2022-10-18T16:04:51.498Z,12.41
2022-10-18T16:10:14.058Z,12.46
2022-10-18T16:15:34.592Z,12.52
2022-10-18T16:20:55.773Z,12.50
2022-10-18T16:26:17.996Z,12.51
2022-10-18T16:31:38.362Z,12.54
2022-10-18T16:36:59.144Z,12.55
2022-10-18T16:42:19.525Z,12.32
2022-10-18T16:47:39.810Z,12.09
2022-10-18T16:53:00.241Z,11.85
2022-10-18T17:03:44.405Z,11.68
2022-10-18T17:09:04.951Z,11.79
2022-10-18T17:14:25.675Z,11.92
2022-10-18T17:19:45.987Z,12.04
2022-10-18T17:25:07.107Z,12.11
2022-10-18T17:30:27.503Z,12.14
2022-10-18T17:35:48.838Z,12.06
2022-10-18T17:41:11.464Z,12.07
2022-10-18T17:46:31.808Z,11.96
2022-10-18T17:51:52.740Z,11.93
2022-10-18T17:57:13.383Z,12.01
2022-10-18T18:02:36.231Z,12.16
2022-10-18T18:08:02.952Z,12.25
2022-10-18T18:13:25.201Z,12.29
2022-10-18T18:18:46.684Z,12.29
2022-10-18T18:24:07.912Z,12.31
2022-10-18T18:29:29.214Z,12.34
2022-10-18T18:34:49.869Z,12.33
2022-10-18T18:40:10.759Z,12.37
2022-10-18T18:45:31.104Z,12.42
2022-10-18T18:50:52.280Z,12.42
2022-10-18T19:01:47.342Z,12.09
2022-10-18T19:07:08.014Z,11.88
2022-10-18T19:12:28.514Z,11.86
2022-10-18T19:17:49.611Z,11.83
2022-10-18T19:23:10.147Z,11.78
2022-10-18T19:28:30.821Z,11.85
2022-10-18T19:33:59.372Z,11.98
2022-10-18T19:39:23.880Z,11.92
2022-10-18T19:44:44.356Z,11.99
2022-10-18T19:50:05.474Z,12.09
2022-10-18T19:55:27.102Z,12.08
2022-10-18T20:00:52.341Z,12.04
2022-10-18T20:06:13.102Z,12.11
2022-10-18T20:11:34.477Z,12.12
2022-10-18T20:16:54.993Z,12.11
2022-10-18T20:22:15.453Z,12.24
2022-10-18T20:27:36.323Z,12.28
2022-10-18T20:32:56.938Z,12.30
2022-10-18T20:38:17.853Z,12.31
2022-10-18T20:43:38.208Z,12.28
2022-10-18T20:48:59.407Z,12.32
2022-10-18T20:54:20.227Z,12.28
2022-10-18T20:59:40.713Z,12.27
2022-10-18T21:05:01.353Z,12.25
2022-10-18T21:10:21.969Z,12.20
2022-10-18T21:15:43.088Z,12.11
2022-10-18T21:26:39.207Z,12.14
2022-10-18T21:32:01.171Z,12.16
2022-10-18T21:37:21.915Z,12.13
2022-10-18T21:42:42.041Z,12.12
2022-10-18T21:48:03.590Z,12.11
2022-10-18T21:53:24.146Z,12.15
2022-10-18T21:58:45.559Z,12.18
2022-10-18T22:04:16.718Z,12.18
2022-10-18T22:09:37.503Z,12.19
2022-10-18T22:14:57.966Z,12.21
2022-10-18T22:20:18.647Z,12.24
2022-10-18T22:25:39.287Z,12.22
2022-10-18T22:31:00.169Z,12.19
2022-10-18T22:36:20.700Z,12.16
2022-10-18T22:41:42.695Z,12.15
2022-10-18T22:47:03.472Z,12.13
2022-10-18T22:52:24.177Z,12.16
2022-10-18T22:57:44.815Z,12.18
2022-10-18T23:03:05.532Z,12.15
2022-10-18T23:08:26.040Z,12.14
2022-10-18T23:13:47.661Z,12.15
2022-10-18T23:19:08.147Z,12.17
2022-10-18T23:24:28.663Z,12.13
2022-10-18T23:29:49.524Z,12.07
2022-10-18T23:35:10.581Z,12.02
2022-10-18T23:40:31.255Z,11.99
2022-10-18T23:45:51.576Z,12.00
2022-10-18T23:51:12.490Z,12.02
2022-10-18T23:56:32.989Z,12.04
